Time;durP1;ratioP1;P1;durP2;ratioP2;P2;SDS_P1;SDS_P2;PMS_P1;PMS_P2;Temp;Humidity;BMP_temperature;BMP_pressure;BME280_temperature;BME280_humidity;BME280_pressure;Samples;Min_cycle;Max_cycle;Signal;HPM_P1;HPM_P2
2023/12/24 00:01:17;;;;;;;11.43;4.13;;;8.30;99.90;;;7.46;100.00;99576.91;5036190;28;20280;-76
2023/12/24 00:03:44;;;;;;;19.37;6.50;;;8.30;99.90;;;7.45;100.00;99575.25;5036114;28;20202;-75
2023/12/24 00:06:12;;;;;;;21.27;6.33;;;8.30;99.90;;;7.47;100.00;99586.53;5036026;28;20199;-75
2023/12/24 00:08:42;;;;;;;19.17;4.93;;;8.30;99.90;;;7.47;100.00;99583.03;5035942;28;20230;-76
2023/12/24 00:11:10;;;;;;;15.10;5.23;;;8.30;99.90;;;7.48;100.00;99574.06;5036220;28;20301;-76
2023/12/24 00:13:38;;;;;;;21.47;7.50;;;8.30;99.90;;;7.49;100.00;99565.91;5035625;28;20687;-76
2023/12/24 00:16:07;;;;;;;23.03;7.63;;;8.30;99.90;;;7.49;100.00;99565.91;5035810;28;20341;-76
2023/12/24 00:18:35;;;;;;;21.23;6.53;;;8.30;99.90;;;7.52;100.00;99572.72;5036530;28;20235;-75
2023/12/24 00:21:03;;;;;;;17.57;5.53;;;8.40;99.90;;;7.51;100.00;99579.88;5035276;28;20211;-75
2023/12/24 00:23:32;;;;;;;21.23;5.57;;;8.40;99.90;;;7.54;100.00;99581.38;5035760;28;20215;-76
2023/12/24 00:26:01;;;;;;;26.93;8.07;;;8.40;99.90;;;7.51;100.00;99579.88;5035717;28;20249;-76
2023/12/24 00:28:29;;;;;;;19.27;6.47;;;8.40;99.90;;;7.52;100.00;99578.06;5035595;28;20222;-75
2023/12/24 00:30:58;;;;;;;11.70;5.37;;;8.40;99.90;;;7.54;100.00;99578.69;5035586;28;20302;-75
2023/12/24 00:33:26;;;;;;;13.07;6.23;;;8.40;99.90;;;7.52;100.00;99581.56;5035812;28;20289;-75
2023/12/24 00:35:54;;;;;;;16.43;6.43;;;8.40;99.90;;;7.53;100.00;99583.19;5035429;28;20226;-75
2023/12/24 00:38:23;;;;;;;17.10;5.40;;;8.40;99.90;;;7.53;100.00;99577.88;5035466;28;20231;-75
2023/12/24 00:40:51;;;;;;;13.37;4.73;;;8.40;99.90;;;7.54;100.00;99582.19;5035402;28;20210;-75
2023/12/24 00:43:20;;;;;;;10.80;4.73;;;8.40;99.90;;;7.52;100.00;99570.91;5035359;28;20297;-75
2023/12/24 00:45:48;;;;;;;12.10;5.97;;;8.40;99.90;;;7.54;100.00;99573.38;5035331;28;20209;-75
2023/12/24 00:48:16;;;;;;;12.47;5.20;;;8.40;99.90;;;7.53;100.00;99567.22;5035141;28;20234;-75
2023/12/24 00:50:45;;;;;;;11.10;4.37;;;8.40;99.90;;;7.52;100.00;99565.56;5034817;28;20623;-75
2023/12/24 00:53:13;;;;;;;13.73;4.27;;;8.40;99.90;;;7.54;100.00;99568.88;5035173;28;20229;-75
2023/12/24 00:55:44;;;;;;;16.87;4.73;;;8.40;99.90;;;7.52;100.00;99565.56;5034833;28;20696;-75
2023/12/24 00:58:12;;;;;;;19.03;6.30;;;8.40;99.90;;;7.53;100.00;99555.75;5035044;28;20317;-75
2023/12/24 01:00:41;;;;;;;16.60;5.70;;;8.30;99.90;;;7.51;100.00;99558.56;5035292;28;20258;-75
2023/12/24 01:03:09;;;;;;;19.10;5.23;;;8.40;99.90;;;7.54;100.00;99558.22;5034957;28;20301;-75
2023/12/24 01:05:38;;;;;;;21.17;6.07;;;8.40;99.90;;;7.52;100.00;99559.41;5034614;28;20677;-76
2023/12/24 01:08:06;;;;;;;18.07;5.03;;;8.40;99.90;;;7.53;100.00;99561.09;5034869;28;20227;-76
2023/12/24 01:10:34;;;;;;;19.23;5.77;;;8.30;99.90;;;7.55;100.00;99575.06;5034836;28;20256;-76
2023/12/24 01:13:03;;;;;;;18.80;6.93;;;8.40;99.90;;;7.53;100.00;99561.88;5034817;28;20207;-76
2023/12/24 01:15:31;;;;;;;20.07;7.47;;;8.40;99.90;;;7.52;100.00;99570.91;5034628;28;20213;-76
2023/12/24 01:18:00;;;;;;;19.83;8.40;;;8.30;99.90;;;7.51;100.00;99569.22;5034286;28;20677;-76
2023/12/24 01:20:28;;;;;;;15.43;5.73;;;8.30;99.90;;;7.52;100.00;99570.06;5034690;28;20260;-76
2023/12/24 01:22:57;;;;;;;16.03;6.90;;;8.30;99.90;;;7.53;100.00;99567.22;5034642;28;20214;-76
2023/12/24 01:25:26;;;;;;;16.63;8.33;;;8.30;99.90;;;7.51;100.00;99574.56;5034571;28;20238;-76
2023/12/24 01:27:54;;;;;;;15.20;6.70;;;8.30;99.90;;;7.50;100.00;99556.09;5034478;28;20262;-75
2023/12/24 01:30:22;;;;;;;12.50;6.53;;;8.30;99.90;;;7.54;100.00;99568.88;5034502;28;20264;-76
2023/12/24 01:32:50;;;;;;;16.23;6.40;;;8.40;99.90;;;7.55;100.00;99565.22;5033873;28;20320;-76
2023/12/24 01:35:20;;;;;;;12.03;5.60;;;8.40;99.90;;;7.55;100.00;99578.53;5034403;28;20210;-76
2023/12/24 01:37:48;;;;;;;10.57;5.10;;;8.40;99.90;;;7.55;100.00;99565.22;5033903;28;20320;-76
2023/12/24 01:40:17;;;;;;;11.90;5.97;;;8.40;99.90;;;7.54;100.00;99560.91;5033984;28;20641;-76
2023/12/24 01:42:45;;;;;;;13.03;5.80;;;8.40;99.90;;;7.53;100.00;99580.53;5034253;28;20257;-76
2023/12/24 01:45:13;;;;;;;16.37;6.83;;;8.30;99.90;;;7.51;100.00;99558.56;5034203;28;20245;-76
2023/12/24 01:47:44;;;;;;;21.47;6.73;;;8.30;99.90;;;7.50;100.00;99559.56;5034091;28;20254;-72
2023/12/24 01:50:21;;;;;;;14.83;5.10;;;8.30;99.90;;;7.49;100.00;99559.75;5034006;28;20221;-72
2023/12/24 01:52:50;;;;;;;16.13;4.90;;;8.30;99.90;;;7.49;100.00;99565.91;5034297;28;20203;-72
2023/12/24 01:55:21;;;;;;;18.73;5.90;;;8.30;99.90;;;7.48;100.00;99569.56;5033977;28;20672;-72
2023/12/24 01:57:50;;;;;;;18.87;7.23;;;8.30;99.90;;;7.49;100.00;99565.91;5033876;28;20314;-72
2023/12/24 02:00:19;;;;;;;23.67;7.83;;;8.30;99.90;;;7.48;100.00;99561.56;5033656;28;20242;-72
2023/12/24 02:02:50;;;;;;;28.93;7.83;;;8.30;99.90;;;7.47;100.00;99564.41;5033548;28;20731;-72
2023/12/24 02:05:20;;;;;;;24.30;6.93;;;8.30;99.90;;;7.48;100.00;99558.91;5033900;28;20206;-72
2023/12/24 02:07:51;;;;;;;22.47;7.10;;;8.30;99.90;;;7.48;100.00;99568.72;5033764;28;20219;-72
2023/12/24 02:10:19;;;;;;;19.40;6.60;;;8.30;99.90;;;7.47;100.00;99565.22;5033749;28;20246;-72
2023/12/24 02:12:48;;;;;;;27.00;8.40;;;8.30;99.90;;;7.47;100.00;99556.41;5033758;28;20238;-72
2023/12/24 02:15:17;;;;;;;23.23;7.67;;;8.30;99.90;;;7.47;100.00;99559.06;5033750;28;20264;-72
2023/12/24 02:17:46;;;;;;;19.37;7.43;;;8.30;99.90;;;7.46;100.00;99554.78;5033613;28;20296;-72
2023/12/24 02:20:14;;;;;;;16.60;7.20;;;8.30;99.90;;;7.47;100.00;99546.59;5033646;28;20207;-72
2023/12/24 02:22:43;;;;;;;14.50;6.00;;;8.30;99.90;;;7.48;100.00;99558.06;5033357;28;20688;-72
2023/12/24 02:25:12;;;;;;;20.97;6.67;;;8.30;99.90;;;7.46;100.00;99530.81;5033599;28;20289;-72
2023/12/24 02:27:52;;;;;;;16.83;5.60;;;8.30;99.90;;;7.45;100.00;99543.28;5033518;28;20300;-72
2023/12/24 02:30:27;;;;;;;21.37;5.83;;;8.30;99.90;;;7.45;100.00;99521.16;5033240;28;20607;-72
2023/12/24 02:32:58;;;;;;;17.77;5.10;;;8.30;99.90;;;7.47;100.00;99522.63;5033576;28;20278;-72
2023/12/24 02:35:33;;;;;;;13.50;4.57;;;8.30;99.90;;;7.47;100.00;99537.78;5033544;28;20218;-72
2023/12/24 02:38:03;;;;;;;11.57;4.10;;;8.30;99.90;;;7.46;100.00;99528.97;5033313;28;20230;-72
2023/12/24 02:40:32;;;;;;;8.97;3.83;;;8.30;99.90;;;7.45;100.00;99527.31;5033721;28;20199;-72
2023/12/24 02:43:00;;;;;;;4.80;3.13;;;8.30;99.90;;;7.45;100.00;99529.97;5033420;28;20202;-72
2023/12/24 02:45:28;;;;;;;5.77;3.13;;;8.30;99.90;;;7.43;100.00;99523.97;5037297;28;20249;-72
2023/12/24 02:47:56;;;;;;;8.53;3.50;;;8.20;99.90;;;7.42;100.00;99517.00;5037451;28;20254;-72
2023/12/24 02:50:24;;;;;;;5.50;3.40;;;8.20;99.90;;;7.41;100.00;99515.31;5037063;28;20733;-72
2023/12/24 02:52:53;;;;;;;6.97;3.77;;;8.20;99.90;;;7.42;100.00;99513.50;5037413;28;20302;-72
2023/12/24 02:55:22;;;;;;;8.97;3.90;;;8.20;99.90;;;7.41;100.00;99510.00;5037368;28;20206;-72
2023/12/24 02:57:50;;;;;;;7.23;3.77;;;8.20;99.90;;;7.43;100.00;99507.19;5036858;28;20318;-72
2023/12/24 03:00:19;;;;;;;6.30;3.30;;;8.20;99.90;;;7.41;100.00;99504.66;5037003;28;20215;-72
2023/12/24 03:02:47;;;;;;;4.50;3.10;;;8.20;99.90;;;7.42;100.00;99506.34;5037285;28;20210;-72
2023/12/24 03:05:15;;;;;;;5.87;3.43;;;8.20;99.90;;;7.42;100.00;99495.69;5037143;28;20210;-72
2023/12/24 03:07:43;;;;;;;3.83;3.10;;;8.20;99.90;;;7.42;100.00;99502.84;5037102;28;20598;-72
2023/12/24 03:10:12;;;;;;;3.93;3.03;;;8.20;99.90;;;7.42;100.00;99508.16;5037112;28;20231;-72
2023/12/24 03:12:41;;;;;;;4.67;3.30;;;8.20;99.90;;;7.43;100.00;99502.66;5037098;28;20209;-72
2023/12/24 03:15:11;;;;;;;5.73;3.60;;;8.20;99.90;;;7.42;100.00;99485.03;5036760;28;20680;-72
2023/12/24 03:17:40;;;;;;;5.33;3.70;;;8.30;99.90;;;7.43;100.00;99481.34;5036833;28;20313;-72
2023/12/24 03:20:10;;;;;;;4.17;3.13;;;8.20;99.90;;;7.44;100.00;99479.53;5036690;28;20211;-72
2023/12/24 03:22:38;;;;;;;4.77;3.70;;;8.20;99.90;;;7.42;100.00;99477.06;5036589;28;20272;-72
2023/12/24 03:25:07;;;;;;;3.93;3.50;;;8.20;99.90;;;7.43;100.00;99497.34;5036827;28;20207;-72
2023/12/24 03:27:35;;;;;;;4.03;3.63;;;8.30;99.90;;;7.43;100.00;99489.34;5036738;28;20254;-75
2023/12/24 03:30:06;;;;;;;3.93;3.57;;;8.20;99.90;;;7.44;100.00;99488.34;5036807;28;20298;-76
2023/12/24 03:32:35;;;;;;;5.60;3.60;;;8.20;99.90;;;7.44;100.00;99491.00;5036782;28;20198;-76
2023/12/24 03:35:03;;;;;;;3.97;3.50;;;8.30;99.90;;;7.46;100.00;99491.69;5036657;28;20297;-76
2023/12/24 03:37:31;;;;;;;4.20;3.80;;;8.20;99.90;;;7.44;100.00;99488.34;5036468;28;20250;-76
2023/12/24 03:39:59;;;;;;;4.00;3.60;;;8.20;99.90;;;7.45;100.00;99484.69;5036265;28;20640;-76
2023/12/24 03:42:28;;;;;;;6.67;4.20;;;8.30;99.90;;;7.46;100.00;99482.88;5036535;28;20207;-76
2023/12/24 03:44:56;;;;;;;4.70;3.87;;;8.30;99.90;;;7.47;100.00;99482.69;5036188;28;20764;-76
2023/12/24 03:47:25;;;;;;;4.53;3.80;;;8.30;99.90;;;7.47;100.00;99489.84;5036088;28;20265;-76
2023/12/24 03:49:53;;;;;;;4.43;4.03;;;8.30;99.90;;;7.44;100.00;99488.34;5036168;28;20227;-76
2023/12/24 03:52:22;;;;;;;5.97;4.50;;;8.30;99.90;;;7.47;100.00;99492.50;5036321;28;20209;-76
2023/12/24 03:54:50;;;;;;;5.67;4.93;;;8.30;99.90;;;7.47;100.00;99493.34;5035939;28;20302;-76
2023/12/24 03:57:18;;;;;;;4.73;4.33;;;8.30;99.90;;;7.48;100.00;99494.16;5035344;28;20230;-75
2023/12/24 03:59:46;;;;;;;6.47;4.50;;;8.30;99.90;;;7.47;100.00;99497.81;5036218;28;20207;-75
2023/12/24 04:02:14;;;;;;;5.70;5.10;;;8.30;99.90;;;7.48;100.00;99497.66;5035855;28;20207;-76
2023/12/24 04:04:47;;;;;;;6.80;5.60;;;8.30;99.90;;;7.48;100.00;99505.66;5036141;28;20211;-76
2023/12/24 04:07:16;;;;;;;7.80;5.60;;;8.30;99.90;;;7.48;100.00;99503.00;5036070;28;20222;-76
2023/12/24 04:09:44;;;;;;;7.63;6.07;;;8.30;99.90;;;7.47;100.00;99503.97;5036072;28;20303;-76
2023/12/24 04:12:12;;;;;;;9.23;6.67;;;8.30;99.90;;;7.48;100.00;99502.16;5036013;28;20304;-76
2023/12/24 04:14:41;;;;;;;7.90;6.60;;;8.30;99.90;;;7.47;100.00;99500.47;5036004;28;20234;-76
2023/12/24 04:17:09;;;;;;;9.73;7.07;;;8.30;99.90;;;7.47;100.00;99496.00;5035727;28;20251;-76
2023/12/24 04:19:37;;;;;;;8.97;8.07;;;8.20;99.90;;;7.46;100.00;99497.03;5035865;28;20219;-76
2023/12/24 04:22:06;;;;;;;9.97;7.97;;;8.30;99.90;;;7.46;100.00;99486.38;5035515;28;20654;-76
2023/12/24 04:24:35;;;;;;;10.53;9.20;;;8.30;99.90;;;7.47;100.00;99481.84;5035753;28;20294;-76
2023/12/24 04:27:03;;;;;;;10.53;8.30;;;8.30;99.90;;;7.47;100.00;99482.69;5035689;28;20231;-76
2023/12/24 04:29:31;;;;;;;10.87;9.10;;;8.30;99.90;;;7.48;100.00;99491.50;5035671;28;20235;-76
2023/12/24 04:31:59;;;;;;;14.97;10.33;;;8.30;99.90;;;7.46;100.00;99478.38;5035638;28;20217;-76
2023/12/24 04:34:28;;;;;;;14.80;10.63;;;8.30;99.90;;;7.47;100.00;99477.34;5035570;28;20207;-76
2023/12/24 04:36:56;;;;;;;14.53;10.70;;;8.30;99.90;;;7.48;100.00;99478.19;5035202;28;20210;-76
2023/12/24 04:39:25;;;;;;;14.97;11.43;;;8.30;99.90;;;7.48;100.00;99473.69;5035060;28;20231;-75
2023/12/24 04:41:54;;;;;;;15.13;11.73;;;8.30;99.90;;;7.48;100.00;99479.03;5035408;28;20233;-75
2023/12/24 04:44:22;;;;;;;13.90;11.23;;;8.30;99.90;;;7.50;100.00;99476.22;5035373;28;20233;-75
2023/12/24 04:46:50;;;;;;;12.80;10.83;;;8.30;99.90;;;7.49;100.00;99470.03;5035857;28;20210;-75
2023/12/24 04:49:18;;;;;;;11.37;10.20;;;8.30;99.90;;;7.51;100.00;99473.34;5035057;28;20310;-75
2023/12/24 04:51:46;;;;;;;12.50;10.23;;;8.30;99.90;;;7.52;100.00;99469.69;5034963;28;20566;-75
2023/12/24 04:54:14;;;;;;;14.90;10.97;;;8.30;99.90;;;7.52;100.00;99464.38;5035216;28;20301;-75
2023/12/24 04:56:44;;;;;;;12.00;10.00;;;8.30;99.90;;;7.54;100.00;99469.50;5034880;28;20690;-75
2023/12/24 04:59:12;;;;;;;10.70;9.40;;;8.30;99.90;;;7.53;100.00;99462.53;5034945;28;20231;-75
2023/12/24 05:01:40;;;;;;;12.90;9.40;;;8.30;99.90;;;7.53;100.00;99460.69;5034737;28;20256;-76
2023/12/24 05:04:08;;;;;;;10.27;9.10;;;8.30;99.90;;;7.54;100.00;99459.69;5035055;28;20210;-76
2023/12/24 05:06:37;;;;;;;9.27;8.37;;;8.30;99.90;;;7.55;100.00;99468.50;5034959;28;20210;-76
2023/12/24 05:09:05;;;;;;;10.17;8.23;;;8.40;99.90;;;7.56;100.00;99460.38;5034537;28;20730;-75
2023/12/24 05:11:33;;;;;;;10.90;7.87;;;8.40;99.90;;;7.56;100.00;99449.72;5034897;28;20234;-75
2023/12/24 05:14:03;;;;;;;9.00;7.83;;;8.40;99.90;;;7.56;100.00;99449.72;5034842;28;20295;-75
2023/12/24 05:16:31;;;;;;;8.87;7.37;;;8.40;99.90;;;7.57;100.00;99439.88;5034441;28;20672;-75
2023/12/24 05:18:59;;;;;;;9.07;7.67;;;8.40;99.90;;;7.56;100.00;99444.38;5034620;28;20262;-75
2023/12/24 05:21:29;;;;;;;10.17;6.43;;;8.40;99.90;;;7.56;100.00;99444.38;5034712;28;20210;-75
2023/12/24 05:23:58;;;;;;;8.87;6.07;;;8.40;99.90;;;7.57;100.00;99456.69;5034685;28;20206;-75
2023/12/24 05:26:26;;;;;;;6.97;6.03;;;8.40;99.90;;;7.60;100.00;99450.19;5034245;28;20554;-75
2023/12/24 05:28:55;;;;;;;7.77;5.87;;;8.40;99.90;;;7.60;100.00;99459.00;5034483;28;20219;-75
2023/12/24 05:31:24;;;;;;;7.70;5.30;;;8.40;99.90;;;7.59;100.00;99454.69;5034475;28;20234;-75
2023/12/24 05:33:53;;;;;;;5.63;5.10;;;8.40;99.90;;;7.60;100.00;99445.69;5034433;28;20211;-75
2023/12/24 05:36:21;;;;;;;6.10;4.80;;;8.40;99.90;;;7.59;100.00;99444.03;5034368;28;20289;-76
2023/12/24 05:38:50;;;;;;;7.23;4.50;;;8.40;99.90;;;7.60;100.00;99443.00;5033909;28;20325;-75
2023/12/24 05:41:18;;;;;;;4.20;3.80;;;8.40;99.90;;;7.61;100.00;99436.69;5034309;28;20210;-75
2023/12/24 05:43:46;;;;;;;5.70;3.37;;;8.40;99.90;;;7.63;100.00;99432.03;5033958;28;20685;-75
2023/12/24 05:46:14;;;;;;;4.93;3.43;;;8.40;99.90;;;7.64;100.00;99424.84;5034524;28;20214;-76
2023/12/24 05:48:44;;;;;;;6.30;3.20;;;8.50;99.90;;;7.67;100.00;99423.69;5034117;28;20254;-75
2023/12/24 05:51:12;;;;;;;3.83;3.27;;;8.50;99.90;;;7.68;100.00;99417.34;5033711;28;20626;-75
2023/12/24 05:53:41;;;;;;;3.70;2.83;;;8.50;99.90;;;7.70;100.00;99418.84;5034069;28;20233;-75
2023/12/24 05:56:09;;;;;;;3.57;2.90;;;8.50;99.90;;;7.76;100.00;99417.31;5033725;28;20726;-75
2023/12/24 05:58:37;;;;;;;4.77;2.90;;;8.60;99.90;;;7.76;100.00;99409.31;5033868;28;20242;-75
2023/12/24 06:01:05;;;;;;;3.20;2.90;;;8.60;99.90;;;7.76;100.00;99412.81;5033705;28;20743;-75
2023/12/24 06:03:33;;;;;;;2.60;2.40;;;8.60;99.90;;;7.76;100.00;99418.16;5033903;28;20210;-75
2023/12/24 06:06:03;;;;;;;2.77;2.57;;;8.60;99.90;;;7.77;100.00;99414.50;5033892;28;20207;-75
2023/12/24 06:08:32;;;;;;;3.80;2.77;;;8.60;99.90;;;7.76;100.00;99417.31;5033505;28;20712;-75
2023/12/24 06:11:00;;;;;;;2.60;2.40;;;8.50;99.90;;;7.76;100.00;99415.50;5033856;28;20241;-75
2023/12/24 06:13:28;;;;;;;2.80;2.30;;;8.60;99.90;;;7.80;100.00;99414.13;5033782;28;20202;-75
2023/12/24 06:15:56;;;;;;;2.60;2.37;;;8.60;99.90;;;7.78;100.00;99425.94;5033765;28;20210;-75
2023/12/24 06:18:24;;;;;;;4.47;2.30;;;8.60;99.90;;;7.82;100.00;99420.13;5033159;28;20234;-75
2023/12/24 06:20:53;;;;;;;2.83;2.57;;;8.60;99.90;;;7.82;100.00;99416.63;5033617;28;20209;-76
2023/12/24 06:23:22;;;;;;;2.50;2.30;;;8.70;99.90;;;7.84;100.00;99406.63;5033623;28;20207;-76
2023/12/24 06:25:51;;;;;;;3.50;2.40;;;8.60;99.90;;;7.85;100.00;99421.59;5033611;28;20295;-76
2023/12/24 06:28:19;;;;;;;3.37;2.63;;;8.60;99.90;;;7.84;100.00;99409.28;5033497;28;20274;-75
2023/12/24 06:30:47;;;;;;;3.90;3.30;;;8.70;99.90;;;7.88;100.00;99411.41;5033549;28;20297;-75
2023/12/24 06:33:16;;;;;;;3.17;2.97;;;8.70;99.90;;;7.88;100.00;99402.59;5033541;28;20383;-75
2023/12/24 06:35:44;;;;;;;3.63;2.90;;;8.70;99.90;;;7.87;100.00;99409.78;5033152;28;20676;-75
2023/12/24 06:38:12;;;;;;;2.87;2.67;;;8.70;99.90;;;7.90;100.00;99403.25;5033421;28;20234;-75
2023/12/24 06:40:41;;;;;;;2.90;2.70;;;8.70;99.90;;;7.89;100.00;99407.75;5033440;28;20230;-75
2023/12/24 06:43:10;;;;;;;2.83;2.60;;;8.70;99.90;;;7.92;100.00;99412.72;5033122;28;20635;-75
2023/12/24 06:45:38;;;;;;;3.57;3.17;;;8.70;99.90;;;7.94;100.00;99405.41;5033373;28;20234;-75
2023/12/24 06:48:07;;;;;;;2.90;2.40;;;8.80;99.90;;;7.95;100.00;99406.22;5033286;28;20258;-75
2023/12/24 06:50:36;;;;;;;2.90;2.40;;;8.80;99.90;;;7.95;100.00;99395.53;5033071;28;20558;-75
2023/12/24 06:53:05;;;;;;;3.97;2.37;;;8.80;99.90;;;7.98;100.00;99396.03;5033330;28;20229;-76
2023/12/24 06:55:34;;;;;;;2.43;2.23;;;8.80;99.90;;;7.97;100.00;99393.56;5033325;28;20213;-76
2023/12/24 06:58:06;;;;;;;3.80;2.63;;;8.80;99.90;;;7.99;100.00;99403.03;5033030;28;20719;-76
2023/12/24 07:00:34;;;;;;;2.70;2.50;;;8.80;99.90;;;7.98;100.00;99405.88;5033473;28;20217;-75
2023/12/24 07:03:02;;;;;;;2.30;2.10;;;8.80;99.90;;;7.99;100.00;99407.53;5032898;28;20631;-76
2023/12/24 07:05:35;;;;;;;3.30;2.30;;;8.80;99.90;;;7.97;100.00;99404.22;5032974;28;20217;-76
2023/12/24 07:08:04;;;;;;;2.23;2.07;;;8.80;99.90;;;7.95;100.00;99404.38;5033159;28;20237;-76
2023/12/24 07:10:32;;;;;;;3.60;3.30;;;8.80;99.90;;;7.98;100.00;99405.88;5032826;28;20613;-75
2023/12/24 07:13:00;;;;;;;3.50;3.20;;;8.80;99.90;;;8.01;100.00;99384.22;5033210;28;20203;-76
2023/12/24 07:15:33;;;;;;;4.20;2.90;;;8.80;99.90;;;8.00;100.00;99387.88;5033171;28;20207;-76
2023/12/24 07:18:01;;;;;;;3.10;2.80;;;8.80;99.90;;;8.01;100.00;99390.34;5033370;28;20330;-76
2023/12/24 07:20:29;;;;;;;2.70;2.50;;;8.80;99.90;;;8.05;100.00;99386.31;5033077;28;20314;-76
2023/12/24 07:22:57;;;;;;;3.83;3.47;;;8.80;99.90;;;8.07;100.00;99388.81;5033074;28;20211;-76
2023/12/24 07:25:29;;;;;;;2.00;1.90;;;8.90;99.90;;;8.07;100.00;99372.81;5032819;28;20538;-76
2023/12/24 07:27:57;;;;;;;2.67;2.03;;;8.90;99.90;;;8.04;100.00;99371.34;5032978;28;20230;-76
2023/12/24 07:30:26;;;;;;;2.10;2.00;;;8.80;99.90;;;8.09;100.00;99376.13;5033352;28;20230;-76
2023/12/24 07:32:55;;;;;;;6.83;2.27;;;8.90;99.90;;;8.12;100.00;99381.09;5036447;28;20730;-76
2023/12/24 07:35:24;;;;;;;1.70;1.60;;;8.90;99.90;;;8.13;100.00;99361.44;5036775;28;20244;-76
2023/12/24 07:37:52;;;;;;;1.80;1.60;;;8.90;99.90;;;8.15;100.00;99368.25;5036343;28;20242;-76
2023/12/24 07:40:21;;;;;;;2.73;1.80;;;9.00;99.90;;;8.15;100.00;99370.91;5036533;28;20226;-76
2023/12/24 07:42:49;;;;;;;2.03;1.50;;;9.00;99.90;;;8.18;100.00;99377.75;5036320;28;20202;-76
2023/12/24 07:45:19;;;;;;;2.17;1.70;;;9.00;99.90;;;8.21;100.00;99369.41;5036219;28;20694;-76
2023/12/24 07:47:47;;;;;;;1.67;1.57;;;9.00;99.90;;;8.25;100.00;99378.69;5036140;28;20730;-76
2023/12/24 07:50:16;;;;;;;1.63;1.53;;;9.10;99.90;;;8.25;100.00;99368.03;5036150;28;20217;-76
2023/12/24 07:52:45;;;;;;;3.23;1.40;;;9.10;99.90;;;8.29;100.00;99363.22;5036399;28;20203;-76
2023/12/24 07:55:13;;;;;;;1.60;1.50;;;9.10;99.90;;;8.29;100.00;99363.22;5036323;28;20213;-76
2023/12/24 07:57:41;;;;;;;1.50;1.40;;;9.10;99.90;;;8.32;100.00;99360.97;5035938;28;20269;-76
2023/12/24 08:00:11;;;;;;;1.40;1.20;;;9.10;99.90;;;8.34;100.00;99358.97;5036171;28;20231;-76
2023/12/24 08:02:39;;;;;;;1.30;1.20;;;9.20;99.90;;;8.39;100.00;99355.78;5036216;28;20210;-76
2023/12/24 08:05:09;;;;;;;2.07;1.23;;;9.20;99.90;;;8.41;100.00;99343.09;5036230;28;20644;-76
2023/12/24 08:07:39;;;;;;;1.37;1.20;;;9.20;99.90;;;8.40;100.00;99360.94;5036057;28;20296;-76
2023/12/24 08:10:08;;;;;;;1.30;1.20;;;9.20;99.90;;;8.43;100.00;99365.91;5035754;28;20668;-72
2023/12/24 08:12:37;;;;;;;1.40;1.30;;;9.30;99.90;;;8.49;100.00;99357.16;5036022;28;20211;-72
2023/12/24 08:15:07;;;;;;;1.00;1.00;;;9.30;99.90;;;8.55;100.00;99366.31;5035645;28;20207;-72
2023/12/24 08:17:35;;;;;;;1.17;1.17;;;9.30;99.90;;;8.55;100.00;99353.81;5035858;28;20280;-72
2023/12/24 08:20:07;;;;;;;1.17;1.10;;;9.40;99.90;;;8.56;100.00;99342.09;5035765;28;20649;-72
2023/12/24 08:22:37;;;;;;;1.40;1.30;;;9.40;99.90;;;8.53;100.00;99358.47;5035509;28;20561;-72
2023/12/24 08:25:09;;;;;;;1.03;1.03;;;9.40;99.90;;;8.54;100.00;99349.47;5035782;28;20230;-72
2023/12/24 08:27:37;;;;;;;1.47;1.10;;;9.40;99.90;;;8.54;100.00;99338.78;5035689;28;20231;-72
2023/12/24 08:30:07;;;;;;;1.30;1.20;;;9.40;99.90;;;8.53;100.00;99342.47;5035663;28;20202;-72
2023/12/24 08:32:35;;;;;;;1.87;1.40;;;9.40;99.90;;;8.57;100.00;99353.59;5035662;28;20194;-72
2023/12/24 08:35:04;;;;;;;1.50;1.40;;;9.40;99.90;;;8.62;100.00;99352.06;5035608;28;20234;-72
2023/12/24 08:37:32;;;;;;;1.40;1.30;;;9.40;99.90;;;8.68;100.00;99349.66;5035187;28;20622;-72
2023/12/24 08:40:00;;;;;;;1.13;1.10;;;9.50;99.90;;;8.75;100.00;99355.94;5035430;28;20234;-72
2023/12/24 08:42:30;;;;;;;1.00;0.93;;;9.50;99.90;;;8.72;100.00;99351.81;5034762;28;20238;-72
2023/12/24 08:44:58;;;;;;;0.80;0.80;;;9.50;99.90;;;8.76;100.00;99362.94;5035402;28;20244;-72
2023/12/24 08:47:26;;;;;;;1.57;1.10;;;9.60;99.90;;;8.80;100.00;99353.56;5034968;28;20704;-72
2023/12/24 08:49:55;;;;;;;1.10;1.10;;;9.60;99.90;;;8.79;100.00;99354.56;5034903;28;20272;-72
2023/12/24 08:52:23;;;;;;;1.30;1.20;;;9.60;99.90;;;8.79;100.00;99352.72;5034986;28;20743;-72
2023/12/24 08:54:51;;;;;;;2.20;1.17;;;9.60;99.90;;;8.79;100.00;99362.56;5034948;28;20264;-72
2023/12/24 08:57:19;;;;;;;1.00;1.00;;;9.60;99.90;;;8.78;100.00;99358.25;5035098;28;20314;-72
2023/12/24 08:59:49;;;;;;;2.37;1.10;;;9.60;99.90;;;8.84;100.00;99345.00;5035068;28;20278;-72
2023/12/24 09:02:17;;;;;;;1.20;1.10;;;9.60;99.90;;;8.88;100.00;99345.44;5034755;28;20652;-72
2023/12/24 09:04:46;;;;;;;2.17;1.80;;;9.70;99.90;;;8.92;100.00;99338.75;5034715;28;20553;-72
2023/12/24 09:07:14;;;;;;;3.70;2.67;;;9.70;99.90;;;8.95;100.00;99347.22;5034632;28;20222;-72
2023/12/24 09:09:43;;;;;;;1.50;1.40;;;9.70;99.90;;;8.94;100.00;99336.72;5034963;28;20238;-72
2023/12/24 09:12:11;;;;;;;1.27;1.00;;;9.70;99.90;;;8.97;100.00;99339.03;5034883;28;20207;-72
2023/12/24 09:14:39;;;;;;;2.13;1.10;;;9.70;99.90;;;9.00;100.00;99344.00;5034851;28;20653;-75
2023/12/24 09:17:08;;;;;;;1.97;1.30;;;9.80;99.90;;;8.95;100.00;99354.38;5034730;28;20261;-75
2023/12/24 09:19:37;;;;;;;1.17;1.10;;;9.70;99.90;;;8.96;100.00;99358.72;5034729;28;20206;-75
2023/12/24 09:22:05;;;;;;;1.23;1.13;;;9.70;99.90;;;8.97;100.00;99349.72;5034287;28;20231;-75
2023/12/24 09:24:33;;;;;;;1.50;1.20;;;9.80;99.90;;;8.99;100.00;99340.50;5034372;28;20250;-75
2023/12/24 09:27:01;;;;;;;2.03;1.30;;;9.80;99.90;;;9.00;100.00;99350.19;5034517;28;20207;-75
2023/12/24 09:29:30;;;;;;;2.53;1.03;;;9.80;99.90;;;9.01;100.00;99345.63;5034227;28;20246;-75
2023/12/24 09:31:58;;;;;;;1.50;1.10;;;9.80;99.90;;;9.04;100.00;99347.97;5034494;28;20202;-75
2023/12/24 09:34:27;;;;;;;1.00;1.00;;;9.80;99.90;;;9.12;100.00;99350.53;5034440;28;20203;-75
2023/12/24 09:36:56;;;;;;;1.93;1.30;;;9.90;99.90;;;9.12;100.00;99359.38;5034061;28;20680;-75
2023/12/24 09:39:24;;;;;;;7.87;3.27;;;9.90;99.90;;;9.12;100.00;99353.19;5033962;28;20673;-75
2023/12/24 09:41:54;;;;;;;5.57;2.97;;;9.90;99.90;;;9.10;100.00;99360.56;5033983;28;20230;-75
2023/12/24 09:44:23;;;;;;;2.80;2.10;;;9.90;99.90;;;9.13;100.00;99349.53;5034115;28;20720;-75
2023/12/24 09:46:52;;;;;;;4.27;2.60;;;9.90;99.90;;;9.18;100.00;99347.09;5033991;28;20672;-75
2023/12/24 09:49:20;;;;;;;2.13;1.77;;;10.00;99.90;;;9.22;100.00;99348.41;5034009;28;20227;-75
2023/12/24 09:51:49;;;;;;;3.00;2.00;;;10.00;99.90;;;9.20;100.00;99352.28;5034204;28;20187;-76
2023/12/24 09:54:18;;;;;;;2.90;2.37;;;9.90;99.90;;;9.14;100.00;99341.31;5033445;28;20234;-76
2023/12/24 09:56:46;;;;;;;3.30;2.43;;;9.90;99.90;;;9.17;100.00;99345.47;5033747;28;20622;-76
2023/12/24 09:59:14;;;;;;;3.83;2.20;;;9.90;99.90;;;9.18;100.00;99354.31;5033881;28;20238;-76
2023/12/24 10:01:45;;;;;;;3.00;2.00;;;10.00;99.90;;;9.23;100.00;99354.56;5033886;28;20242;-76
2023/12/24 10:04:13;;;;;;;3.83;2.67;;;10.00;99.90;;;9.24;100.00;99358.91;5034040;28;20195;-76
2023/12/24 10:06:59;;;;;;;1.87;1.40;;;10.00;99.90;;;9.25;100.00;99353.38;5033881;28;20211;-75
2023/12/24 10:09:44;;;;;;;1.90;1.43;;;10.00;99.90;;;9.27;100.00;99355.88;5032690;28;20566;-76
2023/12/24 10:12:12;;;;;;;3.13;2.00;;;10.00;99.90;;;9.26;100.00;99343.50;5033861;28;20191;-76
2023/12/24 10:14:41;;;;;;;3.23;1.90;;;10.00;99.90;;;9.26;100.00;99338.19;5033759;28;20238;-75
2023/12/24 10:17:10;;;;;;;3.23;2.17;;;10.00;99.90;;;9.30;100.00;99337.63;5033666;28;20297;-74
2023/12/24 10:19:38;;;;;;;1.40;1.30;;;10.10;99.90;;;9.28;100.00;99339.63;5033407;28;20615;-75
2023/12/24 10:22:09;;;;;;;1.30;1.20;;;10.10;99.90;;;9.27;100.00;99337.16;5033245;28;20240;-75
2023/12/24 10:24:38;;;;;;;1.30;1.20;;;10.00;99.90;;;9.29;100.00;99327.94;5033648;28;20282;-75
2023/12/24 10:27:10;;;;;;;1.30;1.20;;;10.10;99.90;;;9.29;100.00;99319.09;5033200;28;20298;-75
2023/12/24 10:29:40;;;;;;;1.33;1.23;;;10.00;99.90;;;9.30;100.00;99332.28;5033578;28;20191;-75